Time;durP1;ratioP1;P1;durP2;ratioP2;P2;SDS_P1;SDS_P2;PMS_P1;PMS_P2;Temp;Humidity;BMP_temperature;BMP_pressure;BME280_temperature;BME280_humidity;BME280_pressure;Samples;Min_cycle;Max_cycle;Signal;HPM_P1;HPM_P2
2022/04/24 00:01:31;;;;;;;7.95;6.05;;;9.60;99.90;;;;;;5053147;28;20049;-71
2022/04/24 00:03:58;;;;;;;12.27;6.13;;;9.60;99.90;;;;;;5053309;28;20048;-72
2022/04/24 00:06:25;;;;;;;11.07;5.80;;;9.60;99.90;;;;;;5051492;28;20445;-72
2022/04/24 00:08:53;;;;;;;8.02;5.45;;;9.50;99.90;;;;;;5052999;28;20088;-72
2022/04/24 00:11:20;;;;;;;8.75;6.13;;;9.50;99.90;;;;;;5051786;28;20455;-72
2022/04/24 00:13:47;;;;;;;8.98;6.05;;;9.50;99.90;;;;;;5052578;28;20056;-71
2022/04/24 00:16:14;;;;;;;8.23;5.72;;;9.40;99.90;;;;;;5051562;28;20448;-71
2022/04/24 00:18:41;;;;;;;9.40;5.65;;;9.40;99.90;;;;;;5051783;28;20456;-71
2022/04/24 00:21:09;;;;;;;11.00;5.78;;;9.40;99.90;;;;;;5051329;28;20049;-70
2022/04/24 00:23:36;;;;;;;8.93;5.55;;;9.40;99.90;;;;;;5052990;28;20543;-71
2022/04/24 00:26:04;;;;;;;7.60;5.78;;;9.30;99.90;;;;;;5051317;28;20493;-71
2022/04/24 00:28:31;;;;;;;11.18;6.43;;;9.30;99.90;;;;;;5050687;28;20068;-71
2022/04/24 00:30:58;;;;;;;8.98;5.50;;;9.30;99.90;;;;;;5051668;28;20055;-71
2022/04/24 00:33:25;;;;;;;10.10;6.60;;;9.30;99.90;;;;;;5052203;28;20461;-71
2022/04/24 00:35:52;;;;;;;9.48;5.97;;;9.30;99.90;;;;;;5051195;28;20455;-71
2022/04/24 00:38:19;;;;;;;8.32;5.93;;;9.30;99.90;;;;;;5052070;28;20052;-71
2022/04/24 00:40:47;;;;;;;9.02;6.28;;;9.20;99.90;;;;;;5052620;28;20155;-71
2022/04/24 00:43:16;;;;;;;8.27;5.07;;;9.20;99.90;;;;;;5051972;28;20049;-71
2022/04/24 00:45:43;;;;;;;8.52;5.95;;;9.20;99.90;;;;;;5051327;28;20542;-70
2022/04/24 00:48:10;;;;;;;8.15;6.60;;;9.10;99.90;;;;;;5051390;28;20080;-71
2022/04/24 00:50:39;;;;;;;9.02;5.82;;;9.10;99.90;;;;;;5052050;28;20053;-71
2022/04/24 00:53:07;;;;;;;9.88;6.10;;;9.10;99.90;;;;;;5052478;28;20045;-71
2022/04/24 00:55:33;;;;;;;9.32;6.25;;;9.20;99.90;;;;;;5052054;28;20049;-70
2022/04/24 00:58:00;;;;;;;7.93;6.10;;;9.10;99.90;;;;;;5051389;28;20401;-71
2022/04/24 01:00:29;;;;;;;8.05;5.95;;;9.10;99.90;;;;;;5051692;28;20116;-71
2022/04/24 01:02:56;;;;;;;8.68;6.70;;;9.10;99.90;;;;;;5050704;28;20130;-71
2022/04/24 01:05:23;;;;;;;7.88;6.10;;;9.00;99.90;;;;;;5051468;28;20493;-71
2022/04/24 01:07:50;;;;;;;8.30;5.97;;;9.00;99.90;;;;;;5051227;28;20114;-70
2022/04/24 01:10:17;;;;;;;9.77;6.13;;;9.00;99.90;;;;;;5051868;28;20049;-70
2022/04/24 01:12:44;;;;;;;11.18;6.55;;;9.00;99.90;;;;;;5052478;28;20543;-70
2022/04/24 01:15:11;;;;;;;9.40;6.10;;;9.00;99.90;;;;;;5052477;28;20076;-70
2022/04/24 01:17:39;;;;;;;8.98;6.47;;;8.90;99.90;;;;;;5051869;28;20110;-70
2022/04/24 01:20:08;;;;;;;9.65;7.18;;;9.00;99.90;;;;;;5052713;28;20041;-70
2022/04/24 01:22:36;;;;;;;10.48;6.95;;;8.90;99.90;;;;;;5050891;28;20048;-70
2022/04/24 01:25:03;;;;;;;11.05;6.63;;;8.80;99.90;;;;;;5050650;28;20049;-70
2022/04/24 01:27:30;;;;;;;8.15;6.80;;;8.80;99.90;;;;;;5052351;28;20057;-71
2022/04/24 01:29:57;;;;;;;9.07;6.43;;;8.70;99.90;;;;;;5054468;28;20045;-71
2022/04/24 01:32:24;;;;;;;10.57;7.28;;;8.60;99.90;;;;;;5054486;28;20165;-71
2022/04/24 01:34:50;;;;;;;9.13;6.78;;;8.50;99.90;;;;;;5054980;28;20202;-71
2022/04/24 01:37:17;;;;;;;9.00;6.75;;;8.50;99.90;;;;;;5055759;28;20114;-71
2022/04/24 01:39:45;;;;;;;8.52;6.68;;;8.40;99.90;;;;;;5054147;28;20057;-71
2022/04/24 01:42:12;;;;;;;8.23;6.38;;;8.40;99.90;;;;;;5056266;28;20413;-71
2022/04/24 01:44:39;;;;;;;10.00;6.93;;;8.40;99.90;;;;;;5055304;28;20106;-71
2022/04/24 01:47:06;;;;;;;9.35;7.00;;;8.30;99.90;;;;;;5054178;28;20049;-71
2022/04/24 01:49:33;;;;;;;9.30;6.85;;;8.30;99.90;;;;;;5055932;28;20084;-71
2022/04/24 01:52:00;;;;;;;8.98;6.63;;;8.20;99.90;;;;;;5053980;28;20052;-70
2022/04/24 01:54:27;;;;;;;9.90;6.60;;;8.20;99.90;;;;;;5055726;28;20084;-71
2022/04/24 01:56:55;;;;;;;10.07;6.97;;;8.10;99.90;;;;;;5054434;28;20061;-70
2022/04/24 01:59:22;;;;;;;9.02;6.95;;;8.00;99.90;;;;;;5054073;28;20119;-70
2022/04/24 02:01:49;;;;;;;10.63;7.10;;;8.00;99.90;;;;;;5054249;28;20505;-71
2022/04/24 02:04:18;;;;;;;10.85;7.18;;;7.90;99.90;;;;;;5054713;28;20053;-71
2022/04/24 02:06:45;;;;;;;10.13;7.60;;;7.90;99.90;;;;;;5054652;28;20049;-71
2022/04/24 02:09:12;;;;;;;11.43;7.07;;;7.80;99.90;;;;;;5054056;28;20102;-71
2022/04/24 02:11:39;;;;;;;8.73;7.18;;;7.70;99.90;;;;;;5054414;28;20098;-71
2022/04/24 02:14:07;;;;;;;10.45;7.40;;;7.60;99.90;;;;;;5054647;28;20556;-71
2022/04/24 02:16:34;;;;;;;9.48;7.40;;;7.60;99.90;;;;;;5054033;28;20568;-71
2022/04/24 02:19:01;;;;;;;10.63;6.90;;;7.50;99.90;;;;;;5053968;28;20497;-72
2022/04/24 02:21:28;;;;;;;9.23;6.97;;;7.50;99.90;;;;;;5054451;28;20115;-71
2022/04/24 02:23:55;;;;;;;11.63;7.65;;;7.50;99.90;;;;;;5055076;28;20049;-71
2022/04/24 02:26:22;;;;;;;10.70;7.00;;;7.40;99.90;;;;;;5054994;28;20102;-71
2022/04/24 02:28:49;;;;;;;10.50;7.43;;;7.40;99.90;;;;;;5052985;28;20130;-71
2022/04/24 02:31:17;;;;;;;10.98;7.28;;;7.30;99.90;;;;;;5053738;28;20473;-72
2022/04/24 02:33:44;;;;;;;10.00;7.68;;;7.30;99.90;;;;;;5053869;28;20060;-72
2022/04/24 02:36:11;;;;;;;10.00;7.28;;;7.40;99.90;;;;;;5054401;28;20124;-70
2022/04/24 02:38:38;;;;;;;9.18;7.53;;;7.30;99.90;;;;;;5053129;28;20145;-71
2022/04/24 02:41:05;;;;;;;10.32;7.35;;;7.30;99.90;;;;;;5054554;28;20189;-71
2022/04/24 02:43:32;;;;;;;10.48;7.07;;;7.40;99.90;;;;;;5054041;28;20386;-71
2022/04/24 02:45:59;;;;;;;9.85;7.82;;;7.30;99.90;;;;;;5070631;28;20048;-71
2022/04/24 02:48:27;;;;;;;10.57;7.85;;;7.20;99.90;;;;;;5054094;28;20060;-71
2022/04/24 02:50:54;;;;;;;11.95;7.88;;;7.20;99.90;;;;;;5053394;28;20089;-71
2022/04/24 02:53:21;;;;;;;10.93;7.90;;;7.20;99.90;;;;;;5053137;28;20509;-71
2022/04/24 02:55:48;;;;;;;11.68;7.88;;;7.20;99.90;;;;;;5054278;28;20057;-71
2022/04/24 02:58:15;;;;;;;11.57;8.23;;;7.20;99.90;;;;;;5053503;28;20044;-71
2022/04/24 03:00:49;;;;;;;12.68;7.80;;;7.10;99.90;;;;;;5053127;28;20102;-70
2022/04/24 03:03:18;;;;;;;8.98;6.53;;;7.20;99.90;;;;;;5052909;28;20053;-71
2022/04/24 03:05:47;;;;;;;12.40;7.60;;;7.10;99.90;;;;;;5053643;28;20139;-71
2022/04/24 03:08:14;;;;;;;10.30;7.07;;;7.10;99.90;;;;;;5052765;28;20053;-71
2022/04/24 03:10:41;;;;;;;12.05;7.03;;;7.10;99.90;;;;;;5052529;28;20053;-72
2022/04/24 03:13:08;;;;;;;11.82;8.10;;;7.10;99.90;;;;;;5054312;28;20045;-70
2022/04/24 03:15:36;;;;;;;12.82;7.45;;;7.10;99.90;;;;;;5054603;28;20053;-71
2022/04/24 03:18:04;;;;;;;8.80;6.93;;;7.10;99.90;;;;;;5052391;28;20057;-71
2022/04/24 03:20:31;;;;;;;9.02;6.93;;;7.10;99.90;;;;;;5052790;28;20049;-72
2022/04/24 03:22:59;;;;;;;10.48;6.97;;;7.10;99.90;;;;;;5052703;28;20111;-71
2022/04/24 03:25:26;;;;;;;10.48;7.03;;;7.10;99.90;;;;;;5052986;28;20048;-71
2022/04/24 03:27:53;;;;;;;10.25;7.88;;;7.10;99.90;;;;;;5053437;28;20064;-71
2022/04/24 03:30:20;;;;;;;8.32;6.22;;;7.10;99.90;;;;;;5053194;28;20140;-71
2022/04/24 03:32:47;;;;;;;9.23;6.75;;;7.10;99.90;;;;;;5052851;28;20508;-71
2022/04/24 03:35:14;;;;;;;8.68;6.75;;;7.10;99.90;;;;;;5052900;28;20052;-71
2022/04/24 03:37:42;;;;;;;9.88;7.22;;;7.10;99.90;;;;;;5052901;28;20057;-70
2022/04/24 03:40:11;;;;;;;9.50;7.43;;;7.10;99.90;;;;;;5053634;28;20049;-71
2022/04/24 03:42:38;;;;;;;8.68;6.93;;;7.00;99.90;;;;;;5053525;28;20079;-71
2022/04/24 03:45:06;;;;;;;8.60;6.45;;;7.00;99.90;;;;;;5051985;28;20044;-70
2022/04/24 03:47:33;;;;;;;9.30;7.43;;;7.00;99.90;;;;;;5053435;28;20053;-71
2022/04/24 03:50:00;;;;;;;11.10;6.50;;;7.00;99.90;;;;;;5051811;28;20555;-73
2022/04/24 03:52:27;;;;;;;10.57;7.30;;;6.90;99.90;;;;;;5052384;28;20045;-72
2022/04/24 03:54:56;;;;;;;9.00;6.40;;;6.90;99.90;;;;;;5053346;28;20099;-72
2022/04/24 03:57:25;;;;;;;12.15;6.75;;;6.90;99.90;;;;;;5053304;28;20107;-72
2022/04/24 03:59:52;;;;;;;12.27;6.68;;;6.90;99.90;;;;;;5052453;28;20067;-72
2022/04/24 04:02:19;;;;;;;8.25;6.43;;;6.80;99.90;;;;;;5053449;28;20060;-73
2022/04/24 04:04:46;;;;;;;11.77;7.30;;;6.80;99.90;;;;;;5053333;28;20044;-72
2022/04/24 04:07:13;;;;;;;8.95;6.18;;;6.80;99.90;;;;;;5052445;28;20056;-71
2022/04/24 04:09:40;;;;;;;10.05;7.55;;;6.80;99.90;;;;;;5052832;28;20520;-73
2022/04/24 04:12:08;;;;;;;9.05;6.80;;;6.80;99.90;;;;;;5051937;28;20088;-72
2022/04/24 04:14:36;;;;;;;11.23;7.65;;;6.80;99.90;;;;;;5052430;28;20041;-72
2022/04/24 04:17:04;;;;;;;11.32;6.82;;;6.80;99.90;;;;;;5051672;28;20057;-72
2022/04/24 04:19:30;;;;;;;8.85;6.80;;;6.70;99.90;;;;;;5051488;28;20044;-72
2022/04/24 04:21:57;;;;;;;11.23;7.30;;;6.70;99.90;;;;;;5051564;28;20076;-72
2022/04/24 04:24:24;;;;;;;12.70;6.85;;;6.70;99.90;;;;;;5053200;28;20048;-72
2022/04/24 04:26:51;;;;;;;10.70;7.32;;;6.70;99.90;;;;;;5051127;28;20126;-72
2022/04/24 04:29:18;;;;;;;9.88;7.25;;;6.70;99.90;;;;;;5051871;28;20053;-72
2022/04/24 04:31:46;;;;;;;12.80;7.13;;;6.70;99.90;;;;;;5052698;28;20055;-71
2022/04/24 04:34:13;;;;;;;14.50;7.13;;;6.70;99.90;;;;;;5052216;28;20227;-72
2022/04/24 04:36:40;;;;;;;10.00;7.03;;;6.60;99.90;;;;;;5052212;28;20041;-72
2022/04/24 04:39:06;;;;;;;9.82;7.20;;;6.60;99.90;;;;;;5052817;28;20148;-72
2022/04/24 04:41:33;;;;;;;11.07;7.40;;;6.80;99.90;;;;;;5052337;28;20045;-71
2022/04/24 04:44:00;;;;;;;12.23;7.35;;;6.70;99.90;;;;;;5053004;28;20056;-72
2022/04/24 04:46:27;;;;;;;10.48;7.03;;;6.70;99.90;;;;;;5051700;28;20048;-72
2022/04/24 04:48:55;;;;;;;9.85;6.60;;;6.70;99.90;;;;;;5051132;28;20080;-73
2022/04/24 04:51:22;;;;;;;9.73;7.20;;;6.80;99.90;;;;;;5052267;28;20099;-73
2022/04/24 04:53:51;;;;;;;10.55;6.93;;;6.90;99.90;;;;;;5051547;28;20103;-73
2022/04/24 04:56:18;;;;;;;11.30;7.57;;;6.90;99.90;;;;;;5051057;28;20056;-72
2022/04/24 04:58:45;;;;;;;9.68;5.88;;;7.00;99.90;;;;;;5051260;28;20045;-73
2022/04/24 05:01:12;;;;;;;12.13;7.38;;;7.10;99.90;;;;;;5051294;28;20103;-72
2022/04/24 05:03:38;;;;;;;9.82;7.22;;;7.10;99.90;;;;;;5055781;28;20126;-72
2022/04/24 05:06:07;;;;;;;9.57;7.25;;;7.20;99.90;;;;;;5055573;28;20061;-72
2022/04/24 05:08:34;;;;;;;12.73;7.22;;;7.20;99.90;;;;;;5054630;28;20084;-72
2022/04/24 05:11:01;;;;;;;12.32;7.53;;;7.10;99.90;;;;;;5055241;28;20048;-72
2022/04/24 05:13:28;;;;;;;14.90;7.57;;;7.20;99.90;;;;;;5055127;28;20136;-72
2022/04/24 05:15:55;;;;;;;10.90;7.70;;;7.20;99.90;;;;;;5054327;28;20139;-72
2022/04/24 05:18:22;;;;;;;11.68;8.00;;;7.20;99.90;;;;;;5055266;28;20049;-72
2022/04/24 05:20:50;;;;;;;13.38;7.55;;;7.30;99.90;;;;;;5056252;28;20099;-72
2022/04/24 05:23:18;;;;;;;11.60;7.80;;;7.30;99.90;;;;;;5055739;28;20416;-70
2022/04/24 05:25:45;;;;;;;10.80;8.02;;;7.40;99.90;;;;;;5056435;28;20451;-71
2022/04/24 05:28:12;;;;;;;11.77;8.10;;;7.40;99.90;;;;;;5054837;28;20562;-72
2022/04/24 05:30:39;;;;;;;12.88;7.90;;;7.50;99.90;;;;;;5055372;28;20509;-71
2022/04/24 05:33:07;;;;;;;12.90;7.68;;;7.50;99.90;;;;;;5056205;28;20143;-71
2022/04/24 05:35:33;;;;;;;12.68;9.13;;;7.50;99.90;;;;;;5052592;28;20516;-72
2022/04/24 05:38:01;;;;;;;13.13;7.07;;;7.60;99.90;;;;;;5051208;28;20049;-73
2022/04/24 05:40:29;;;;;;;13.43;8.32;;;7.60;99.90;;;;;;5053026;28;20045;-73
2022/04/24 05:42:56;;;;;;;14.38;7.63;;;7.80;99.90;;;;;;5053701;28;20049;-74
2022/04/24 05:45:24;;;;;;;11.73;7.57;;;7.70;99.90;;;;;;5054313;28;20048;-73
2022/04/24 05:47:54;;;;;;;11.98;7.50;;;7.70;99.90;;;;;;5053800;28;20049;-73
2022/04/24 05:50:21;;;;;;;13.38;8.23;;;7.80;99.90;;;;;;5049936;28;20163;-73
2022/04/24 05:52:48;;;;;;;12.75;7.93;;;7.90;99.90;;;;;;5052192;28;20493;-73
2022/04/24 05:55:15;;;;;;;10.80;8.07;;;8.00;99.90;;;;;;5052348;28;20408;-73
2022/04/24 05:57:43;;;;;;;12.00;7.72;;;8.20;99.90;;;;;;5054373;28;20049;-73
2022/04/24 06:00:12;;;;;;;11.73;7.68;;;8.30;99.90;;;;;;5052728;28;20128;-73
2022/04/24 06:02:40;;;;;;;10.13;6.70;;;8.50;99.90;;;;;;5052288;28;20080;-73
2022/04/24 06:05:08;;;;;;;11.00;6.68;;;8.70;99.90;;;;;;5053950;28;20449;-73
2022/04/24 06:07:35;;;;;;;10.65;6.10;;;9.10;99.90;;;;;;5051816;28;20492;-72
2022/04/24 06:10:02;;;;;;;9.30;6.50;;;9.40;99.90;;;;;;5053428;28;20103;-72
2022/04/24 06:12:29;;;;;;;8.80;6.45;;;9.60;99.90;;;;;;5051745;28;20055;-73
2022/04/24 06:15:03;;;;;;;8.20;5.97;;;10.20;99.90;;;;;;5052605;28;20045;-73
2022/04/24 06:17:30;;;;;;;8.32;5.93;;;10.40;99.90;;;;;;5051811;28;20052;-73
2022/04/24 06:19:56;;;;;;;8.98;5.60;;;10.60;99.90;;;;;;5051406;28;20080;-72
2022/04/24 06:22:23;;;;;;;10.55;6.18;;;11.10;99.90;;;;;;5051981;28;20044;-72
2022/04/24 06:24:50;;;;;;;9.57;5.53;;;11.20;99.90;;;;;;5052431;28;20048;-73
2022/04/24 06:27:17;;;;;;;8.90;5.28;;;11.70;99.90;;;;;;5051192;28;20049;-72
2022/04/24 06:29:44;;;;;;;6.93;4.50;;;11.90;99.90;;;;;;5052435;28;20057;-73
2022/04/24 06:32:12;;;;;;;7.93;5.13;;;12.30;99.90;;;;;;5053048;28;20044;-74
2022/04/24 06:34:39;;;;;;;7.15;4.93;;;12.90;99.90;;;;;;5050539;28;20076;-73
2022/04/24 06:37:06;;;;;;;6.95;4.68;;;13.30;99.90;;;;;;5051713;28;20087;-73
2022/04/24 06:39:33;;;;;;;6.57;4.35;;;13.70;99.90;;;;;;5052977;28;20099;-73
2022/04/24 06:42:00;;;;;;;7.32;4.50;;;14.00;99.90;;;;;;5052984;28;20044;-73
2022/04/24 06:44:27;;;;;;;8.10;3.97;;;13.90;99.90;;;;;;5051682;28;20049;-73
2022/04/24 06:46:54;;;;;;;8.40;4.15;;;14.40;99.70;;;;;;5051795;28;20095;-73
2022/04/24 06:49:22;;;;;;;6.13;3.20;;;14.60;99.20;;;;;;5052578;28;20087;-73
2022/04/24 06:51:49;;;;;;;7.40;3.38;;;15.20;98.10;;;;;;5051322;28;20077;-73
2022/04/24 06:54:16;;;;;;;8.15;3.30;;;15.50;97.80;;;;;;5051741;28;20493;-73
2022/04/24 06:56:42;;;;;;;5.93;3.13;;;16.00;97.30;;;;;;5052681;28;20057;-73
2022/04/24 06:59:09;;;;;;;4.07;2.70;;;16.00;95.90;;;;;;5053613;28;20084;-73
2022/04/24 07:01:36;;;;;;;5.47;2.90;;;16.30;94.80;;;;;;5050690;28;20491;-74
2022/04/24 07:04:03;;;;;;;4.53;2.90;;;16.60;95.50;;;;;;5051531;28;20053;-73
2022/04/24 07:06:31;;;;;;;6.32;3.00;;;16.60;94.70;;;;;;5051340;28;20054;-73
2022/04/24 07:08:58;;;;;;;6.18;2.90;;;16.70;94.40;;;;;;5052002;28;20091;-73
2022/04/24 07:11:25;;;;;;;3.63;2.20;;;16.90;93.30;;;;;;5050738;28;20045;-73
2022/04/24 07:13:51;;;;;;;5.72;2.70;;;17.20;92.60;;;;;;5051186;28;20059;-73
2022/04/24 07:16:18;;;;;;;4.10;2.90;;;17.30;91.80;;;;;;5050595;28;20057;-72
2022/04/24 07:18:45;;;;;;;4.97;2.30;;;17.40;90.70;;;;;;5052351;28;20065;-72
2022/04/24 07:21:12;;;;;;;5.47;2.28;;;17.60;90.90;;;;;;5052370;28;20099;-73
2022/04/24 07:23:40;;;;;;;4.97;2.40;;;18.00;91.40;;;;;;5051840;28;20048;-73
2022/04/24 07:26:07;;;;;;;5.28;2.33;;;17.90;90.60;;;;;;5049873;28;20041;-73
2022/04/24 07:28:35;;;;;;;3.83;1.83;;;18.30;90.60;;;;;;5050417;28;20057;-69
2022/04/24 07:31:02;;;;;;;4.15;2.08;;;18.40;90.10;;;;;;5051811;28;20132;-70
2022/04/24 07:33:29;;;;;;;4.22;2.13;;;18.70;89.20;;;;;;5050874;28;20475;-70
2022/04/24 07:35:56;;;;;;;4.22;2.45;;;18.90;87.20;;;;;;5049832;28;20048;-70
2022/04/24 07:38:22;;;;;;;5.70;2.20;;;19.20;85.20;;;;;;5052220;28;20091;-70
2022/04/24 07:40:51;;;;;;;5.07;2.00;;;19.30;83.90;;;;;;5050252;28;20052;-70
2022/04/24 07:43:18;;;;;;;4.80;2.05;;;18.80;81.10;;;;;;5048060;28;20048;-70
2022/04/24 07:45:48;;;;;;;5.30;2.15;;;19.00;83.40;;;;;;5050788;28;20111;-70
2022/04/24 07:48:15;;;;;;;3.25;2.00;;;19.20;82.20;;;;;;5051636;28;20080;-70
2022/04/24 07:50:44;;;;;;;4.45;2.40;;;19.70;83.10;;;;;;5049000;28;20125;-70
2022/04/24 07:53:11;;;;;;;4.40;2.20;;;19.70;80.30;;;;;;5052261;28;20052;-70
2022/04/24 07:55:41;;;;;;;3.85;2.10;;;19.80;81.00;;;;;;5051086;28;20401;-70
2022/04/24 07:58:09;;;;;;;4.03;2.07;;;19.90;80.60;;;;;;5049773;28;20048;-71
2022/04/24 08:00:36;;;;;;;4.78;2.20;;;19.90;79.80;;;;;;5047096;28;20045;-71
2022/04/24 08:03:05;;;;;;;4.60;2.63;;;19.70;80.50;;;;;;5051314;28;20094;-70
2022/04/24 08:05:32;;;;;;;4.25;2.30;;;19.80;80.90;;;;;;5051349;28;20057;-70
2022/04/24 08:08:01;;;;;;;4.35;2.58;;;19.90;79.60;;;;;;5050284;28;20060;-70
2022/04/24 08:10:30;;;;;;;5.10;2.35;;;19.70;78.90;;;;;;5049218;28;20053;-72
2022/04/24 08:12:57;;;;;;;5.32;2.50;;;19.70;77.70;;;;;;5050358;28;20049;-72
2022/04/24 08:15:25;;;;;;;3.50;2.20;;;19.80;78.40;;;;;;5051146;28;20049;-70
2022/04/24 08:17:52;;;;;;;5.50;2.38;;;20.40;78.00;;;;;;5049586;28;20060;-71
2022/04/24 08:20:20;;;;;;;4.68;2.42;;;20.40;76.60;;;;;;5050220;28;20080;-71
2022/04/24 08:22:48;;;;;;;5.63;2.42;;;20.60;76.30;;;;;;5050085;28;20471;-71
2022/04/24 08:25:17;;;;;;;4.00;2.35;;;20.30;74.00;;;;;;5049871;28;20114;-71
2022/04/24 08:27:44;;;;;;;3.72;1.95;;;20.20;75.30;;;;;;5048336;28;20049;-71
2022/04/24 08:30:12;;;;;;;4.75;3.17;;;20.80;75.30;;;;;;5050001;28;20048;-71
2022/04/24 08:32:42;;;;;;;3.08;2.20;;;21.20;76.00;;;;;;5049458;28;20095;-71
2022/04/24 08:35:10;;;;;;;4.63;2.58;;;21.40;74.30;;;;;;5051143;28;20053;-71
2022/04/24 08:37:37;;;;;;;4.53;2.40;;;21.20;74.10;;;;;;5046498;28;20107;-71
2022/04/24 08:40:06;;;;;;;4.38;2.33;;;21.30;73.30;;;;;;5049299;28;20184;-71
2022/04/24 08:42:33;;;;;;;4.30;2.10;;;21.50;72.10;;;;;;5050426;28;20053;-72
2022/04/24 08:45:01;;;;;;;4.43;2.10;;;21.60;71.70;;;;;;5049655;28;20084;-71
2022/04/24 08:47:29;;;;;;;4.25;2.40;;;21.60;70.80;;;;;;5050152;28;20045;-70
2022/04/24 08:49:59;;;;;;;4.65;2.55;;;21.60;72.30;;;;;;5049715;28;20079;-71
2022/04/24 08:52:28;;;;;;;4.38;2.67;;;21.60;71.30;;;;;;5050546;28;20198;-72
2022/04/24 08:54:56;;;;;;;12.43;2.30;;;21.60;71.30;;;;;;5050020;28;20443;-72
2022/04/24 08:57:26;;;;;;;3.35;2.35;;;22.00;72.00;;;;;;5049225;28;20048;-71
2022/04/24 08:59:53;;;;;;;3.90;2.53;;;22.20;72.00;;;;;;5050009;28;20095;-71
2022/04/24 09:02:20;;;;;;;6.45;2.28;;;21.90;70.90;;;;;;5050302;28;20118;-71
2022/04/24 09:04:47;;;;;;;4.53;3.05;;;22.20;71.50;;;;;;5050462;28;20048;-72
2022/04/24 09:07:17;;;;;;;5.20;2.58;;;22.30;70.20;;;;;;5048674;28;20048;-71
2022/04/24 09:09:46;;;;;;;4.97;2.95;;;22.10;69.80;;;;;;5049093;28;20057;-72
2022/04/24 09:12:14;;;;;;;5.20;2.58;;;22.10;70.70;;;;;;5050674;28;20080;-72
2022/04/24 09:14:42;;;;;;;4.55;2.25;;;22.10;70.70;;;;;;5049094;28;20087;-71
2022/04/24 09:17:18;;;;;;;4.57;2.72;;;22.00;68.80;;;;;;5049916;28;20053;-71
2022/04/24 09:19:45;;;;;;;4.70;2.22;;;21.90;69.80;;;;;;5049586;28;20053;-72
2022/04/24 09:22:12;;;;;;;4.57;2.78;;;22.10;70.20;;;;;;5050179;28;20044;-72
2022/04/24 09:24:45;;;;;;;5.18;2.53;;;22.20;69.30;;;;;;5047848;28;20053;-72
2022/04/24 09:27:22;;;;;;;4.82;2.50;;;22.30;69.50;;;;;;5049353;28;20122;-72
2022/04/24 09:29:52;;;;;;;4.05;2.83;;;22.40;68.70;;;;;;5049373;28;20044;-72
2022/04/24 09:32:19;;;;;;;3.72;2.08;;;22.20;68.60;;;;;;5050236;28;20048;-71
2022/04/24 09:34:45;;;;;;;3.78;2.50;;;22.60;69.40;;;;;;5048658;28;20554;-71
2022/04/24 09:37:12;;;;;;;3.60;2.25;;;22.20;67.70;;;;;;5045970;28;20077;-70
2022/04/24 09:39:41;;;;;;;3.58;1.85;;;22.60;68.20;;;;;;5050433;28;20493;-71
2022/04/24 09:42:09;;;;;;;2.90;1.83;;;22.50;67.60;;;;;;5051190;28;20049;-70
2022/04/24 09:44:38;;;;;;;4.45;2.58;;;22.60;67.10;;;;;;5045897;28;20142;-69
2022/04/24 09:47:06;;;;;;;5.03;2.17;;;22.80;67.30;;;;;;5045702;28;20076;-71
2022/04/24 09:49:36;;;;;;;3.20;2.20;;;22.50;66.30;;;;;;5049551;28;20520;-71
2022/04/24 09:52:08;;;;;;;4.32;2.08;;;22.80;66.90;;;;;;5051480;28;20036;-70
2022/04/24 09:54:35;;;;;;;4.65;2.08;;;22.60;66.00;;;;;;5052653;28;20072;-71
2022/04/24 09:57:04;;;;;;;4.00;2.33;;;22.40;66.00;;;;;;5051382;28;20048;-71
2022/04/24 09:59:32;;;;;;;4.90;2.08;;;22.30;66.00;;;;;;5053144;28;20103;-71
2022/04/24 10:01:59;;;;;;;6.65;2.25;;;22.80;66.70;;;;;;5052420;28;20044;-70
2022/04/24 10:04:27;;;;;;;3.90;2.17;;;22.90;66.60;;;;;;5053699;28;20473;-71
2022/04/24 10:06:54;;;;;;;4.53;2.17;;;22.70;65.10;;;;;;5054179;28;20049;-70
2022/04/24 10:09:23;;;;;;;5.22;3.05;;;22.50;65.20;;;;;;5053047;28;20091;-71
2022/04/24 10:11:51;;;;;;;3.65;2.13;;;22.10;66.00;;;;;;5051294;28;20114;-70
2022/04/24 10:14:19;;;;;;;3.20;1.80;;;22.20;66.40;;;;;;5053369;28;20088;-71
2022/04/24 10:17:06;;;;;;;5.00;2.10;;;22.30;66.20;;;;;;5051979;28;20053;-71
2022/04/24 10:19:46;;;;;;;5.38;1.95;;;22.80;66.90;;;;;;5054027;28;20087;-71
2022/04/24 10:22:21;;;;;;;4.53;2.30;;;22.90;66.10;;;;;;5053131;28;20489;-71
2022/04/24 10:24:48;;;;;;;5.15;2.42;;;23.10;66.50;;;;;;5053352;28;20041;-72
2022/04/24 10:27:17;;;;;;;6.85;2.70;;;23.50;66.60;;;;;;5051210;28;20473;-72
2022/04/24 10:29:52;;;;;;;5.30;2.40;;;24.10;66.90;;;;;;5054093;28;20037;-71
2022/04/24 10:32:27;;;;;;;3.97;2.30;;;24.40;66.30;;;;;;5051966;28;20045;-72
2022/04/24 10:34:54;;;;;;;5.80;2.13;;;24.40;67.60;;;;;;5053322;28;20156;-71
2022/04/24 10:37:29;;;;;;;4.75;1.98;;;24.50;65.90;;;;;;5051463;28;20053;-71
2022/04/24 10:39:58;;;;;;;4.53;2.10;;;23.90;63.10;;;;;;5048261;28;20474;-71
2022/04/24 10:42:33;;;;;;;2.95;1.67;;;23.50;64.30;;;;;;5051993;28;20041;-71
2022/04/24 10:45:08;;;;;;;3.88;2.00;;;23.60;64.70;;;;;;5053041;28;20044;-71
2022/04/24 10:47:58;;;;;;;4.53;1.60;;;24.00;64.40;;;;;;5048364;28;20500;-71
2022/04/24 10:50:25;;;;;;;4.95;2.00;;;23.70;63.90;;;;;;5049209;28;20060;-69
2022/04/24 10:52:53;;;;;;;4.13;1.70;;;23.70;65.20;;;;;;5047142;28;20045;-69
2022/04/24 10:55:25;;;;;;;5.70;3.05;;;23.70;63.70;;;;;;5050998;28;20059;-71
2022/04/24 10:57:57;;;;;;;3.65;2.13;;;23.90;62.90;;;;;;5048936;28;20045;-70
2022/04/24 11:00:32;;;;;;;4.35;2.15;;;23.80;63.90;;;;;;5050685;28;20040;-70
2022/04/24 11:03:07;;;;;;;3.35;2.00;;;23.80;64.80;;;;;;5050278;28;20047;-71
2022/04/24 11:05:37;;;;;;;5.03;1.83;;;23.60;64.30;;;;;;5052919;28;20505;-71
2022/04/24 11:08:05;;;;;;;4.75;2.38;;;23.30;65.20;;;;;;5050482;28;20501;-71
2022/04/24 11:10:39;;;;;;;5.20;2.30;;;23.40;66.00;;;;;;5051250;28;20168;-71
2022/04/24 11:13:09;;;;;;;4.68;2.40;;;23.30;65.30;;;;;;5052227;28;20045;-71
2022/04/24 11:15:42;;;;;;;4.68;2.33;;;23.10;65.40;;;;;;5051839;28;20107;-72
2022/04/24 11:18:18;;;;;;;4.25;2.67;;;23.30;64.90;;;;;;5052486;28;20554;-68
2022/04/24 11:20:56;;;;;;;6.30;2.40;;;23.40;64.00;;;;;;5052618;28;20053;-74
2022/04/24 11:23:27;;;;;;;5.70;2.65;;;23.40;65.10;;;;;;5052090;28;20075;-71
2022/04/24 11:25:55;;;;;;;5.38;2.35;;;23.40;65.30;;;;;;5052012;28;20080;-72
2022/04/24 11:28:22;;;;;;;11.23;2.63;;;23.80;66.10;;;;;;5052327;28;20106;-71
2022/04/24 11:30:50;;;;;;;6.35;2.63;;;23.70;66.50;;;;;;5054207;28;20049;-71
2022/04/24 11:33:17;;;;;;;24.38;3.75;;;23.70;67.50;;;;;;5051481;28;20049;-72
2022/04/24 11:35:44;;;;;;;10.80;2.97;;;24.00;67.10;;;;;;5049934;28;20517;-72
2022/04/24 11:38:13;;;;;;;12.93;3.40;;;24.10;65.00;;;;;;5050888;28;20049;-72
2022/04/24 11:40:46;;;;;;;20.03;4.40;;;23.60;65.30;;;;;;5048786;28;20051;-71
2022/04/24 11:43:16;;;;;;;9.30;3.20;;;23.60;65.60;;;;;;5051462;28;20045;-71
2022/04/24 11:51:17;;;;;;;11.52;3.67;;;23.70;66.50;;;;;;5048493;28;20791;-68
2022/04/24 11:53:45;;;;;;;7.60;2.97;;;23.60;67.10;;;;;;5051607;28;20099;-68
2022/04/24 11:56:13;;;;;;;7.50;2.78;;;24.40;66.60;;;;;;5049945;28;20095;-67
2022/04/24 11:58:41;;;;;;;5.65;2.90;;;24.50;66.00;;;;;;5047758;28;20088;-68
2022/04/24 12:01:09;;;;;;;5.97;2.67;;;24.70;65.00;;;;;;5049859;28;20049;-68
2022/04/24 12:03:38;;;;;;;6.68;2.58;;;24.00;64.70;;;;;;5050180;28;20451;-68
2022/04/24 12:06:06;;;;;;;8.38;3.28;;;24.10;65.10;;;;;;5049695;28;20045;-68
2022/04/24 12:08:41;;;;;;;5.90;3.20;;;23.80;65.50;;;;;;5049568;28;20044;-68
2022/04/24 12:11:08;;;;;;;5.93;3.10;;;23.00;67.40;;;;;;5055081;28;20056;-67
2022/04/24 12:13:35;;;;;;;5.97;2.90;;;22.90;67.70;;;;;;5049652;28;20041;-68
2022/04/24 12:16:02;;;;;;;6.88;2.92;;;23.30;67.80;;;;;;5051220;28;20421;-68
2022/04/24 12:18:29;;;;;;;6.72;3.25;;;23.10;67.50;;;;;;5049348;28;20048;-68
2022/04/24 12:20:57;;;;;;;6.55;3.00;;;23.30;67.70;;;;;;5050673;28;20099;-68
2022/04/24 12:23:26;;;;;;;5.28;2.80;;;23.00;68.10;;;;;;5050053;28;20057;-68
2022/04/24 12:25:55;;;;;;;8.88;3.22;;;22.90;67.80;;;;;;5047901;28;20136;-67
2022/04/24 12:28:34;;;;;;;5.47;2.67;;;22.90;67.70;;;;;;5049111;28;20056;-67
2022/04/24 12:31:03;;;;;;;7.72;3.15;;;23.20;68.20;;;;;;5047915;28;20052;-67
2022/04/24 12:33:31;;;;;;;7.15;2.83;;;23.10;67.80;;;;;;5049136;28;20069;-67
2022/04/24 12:36:10;;;;;;;6.18;2.70;;;23.60;67.70;;;;;;5049358;28;20088;-67
2022/04/24 12:38:37;;;;;;;6.40;2.90;;;24.20;66.90;;;;;;5048749;28;20128;-66
2022/04/24 12:41:10;;;;;;;4.38;2.53;;;24.10;66.50;;;;;;5049434;28;20102;-67
2022/04/24 12:43:37;;;;;;;5.97;2.85;;;24.00;66.30;;;;;;5050243;28;20127;-67
2022/04/24 12:46:05;;;;;;;4.20;2.72;;;23.10;66.60;;;;;;5048965;28;20132;-66
2022/04/24 12:48:32;;;;;;;4.57;2.70;;;22.80;68.10;;;;;;5049819;28;20056;-66
2022/04/24 12:50:58;;;;;;;4.50;2.90;;;23.20;68.20;;;;;;5049713;28;20053;-66
2022/04/24 12:53:27;;;;;;;18.30;6.28;;;23.40;68.20;;;;;;5049966;28;20563;-66
2022/04/24 12:55:54;;;;;;;4.03;2.15;;;22.70;68.20;;;;;;5050497;28;20060;-68
2022/04/24 12:58:21;;;;;;;6.45;3.10;;;22.80;68.20;;;;;;5049209;28;20102;-72